This is the latest recevied weather packets stored in our database for station/object BMCB-34. If no packets are shown the sender has not sent any weather packets the latest 10 day(s).
| Time | Temp. | Humidity | Pressure | Rain* | Wind** | Luminosity | Snow |
|---|---|---|---|---|---|---|---|
| 1777525823 | 7.78° C | 47% | 1019.9 hPa | 0 mm | - | 14 W/m² | - |
| 1777524035 | 7.78° C | 47% | 1019.7 hPa | 0 mm | - | 6 W/m² | - |
| 1777523424 | 7.78° C | 46% | 1019.6 hPa | 0 mm | - | 0 W/m² | - |
| 1777519824 | 8.33° C | 46% | 1019.5 hPa | 0 mm | - | 0 W/m² | - |
| 1777517428 | 8.33° C | 47% | 1019.3 hPa | 0 mm | - | 0 W/m² | - |
| 1777516237 | 8.89° C | 47% | 1019.4 hPa | 0 mm | - | 0 W/m² | - |
| 1777515622 | 8.89° C | 46% | 1019.4 hPa | 0 mm | - | 0 W/m² | - |
| 1777514434 | 8.89° C | 45% | 1019.4 hPa | 0 mm | - | 0 W/m² | - |
| 1777506640 | 11.11° C | 42% | 1019 hPa | 0 mm | - | 0 W/m² | - |
| 1777503643 | 12.22° C | 44% | 1018.5 hPa | 0 mm | - | 0 W/m² | - |
| 1777500630 | 12.78° C | 43% | 1018.3 hPa | 0 mm | - | 0 W/m² | - |
| 1777494042 | 14.44° C | 35% | 1017.3 hPa | 0 mm | - | 0 W/m² | - |
| 1777494036 | 15° C | 35% | 1017.2 hPa | 0 mm | - | 0 W/m² | - |
| 1777489242 | 16.67° C | 30% | 1016.2 hPa | 0 mm | - | 2 W/m² | - |
| 1777487443 | 16.67° C | 30% | 1016 hPa | 0 mm | - | 10 W/m² | - |
| 1777486247 | 17.78° C | 29% | 1015.7 hPa | 0 mm | - | 62 W/m² | - |
| 1777485633 | 17.78° C | 29% | 1015.6 hPa | 0 mm | - | 128 W/m² | - |
| 1777483842 | 18.33° C | 28% | 1015.4 hPa | 0 mm | - | 204 W/m² | - |
| 1777477831 | 20° C | 30% | 1015.1 hPa | 0 mm | - | 454 W/m² | - |
| 1777475424 | 20° C | 29% | 1015.1 hPa | 0 mm | - | 544 W/m² | - |
| 1777470624 | 20° C | 33% | 1015.2 hPa | 0 mm | - | 664 W/m² | - |
| 1777466422 | 20° C | 36% | 1015.4 hPa | 0 mm | - | 702 W/m² | - |
| 1777459224 | 18.33° C | 38% | 1015.8 hPa | 0 mm | - | 632 W/m² | - |
| 1777458024 | 17.78° C | 39% | 1015.8 hPa | 0 mm | - | 604 W/m² | - |
| 1777456237 | 17.22° C | 40% | 1015.7 hPa | 0 mm | - | 570 W/m² | - |
* Rain latest hour (hover to see other rain measurements)
** Current wind speed in m/s (hover to see current wind gust speed)